sensor_id;sensor_type;location;lat;lon;timestamp;P1;durP1;ratioP1;P2;durP2;ratioP2
21569;SDS011;57598;50.888;4.746;2023-07-02T00:01:52;50.78;;;46.40;;
21569;SDS011;57598;50.888;4.746;2023-07-02T00:04:19;56.30;;;50.80;;
21569;SDS011;57598;50.888;4.746;2023-07-02T00:06:46;50.97;;;46.70;;
21569;SDS011;57598;50.888;4.746;2023-07-02T00:09:15;49.30;;;45.35;;
21569;SDS011;57598;50.888;4.746;2023-07-02T00:11:43;48.55;;;44.65;;
21569;SDS011;57598;50.888;4.746;2023-07-02T00:14:12;49.97;;;45.88;;
21569;SDS011;57598;50.888;4.746;2023-07-02T00:16:42;46.88;;;43.53;;
21569;SDS011;57598;50.888;4.746;2023-07-02T00:19:10;47.65;;;44.05;;
21569;SDS011;57598;50.888;4.746;2023-07-02T00:21:37;47.72;;;44.10;;
21569;SDS011;57598;50.888;4.746;2023-07-02T00:24:06;47.50;;;44.03;;
21569;SDS011;57598;50.888;4.746;2023-07-02T00:26:36;53.05;;;48.17;;
21569;SDS011;57598;50.888;4.746;2023-07-02T00:29:05;48.37;;;44.67;;
21569;SDS011;57598;50.888;4.746;2023-07-02T00:31:33;47.28;;;43.42;;
21569;SDS011;57598;50.888;4.746;2023-07-02T00:34:00;50.17;;;45.97;;
21569;SDS011;57598;50.888;4.746;2023-07-02T00:36:28;49.53;;;45.67;;
21569;SDS011;57598;50.888;4.746;2023-07-02T00:38:55;47.42;;;43.83;;
21569;SDS011;57598;50.888;4.746;2023-07-02T00:41:23;47.28;;;43.67;;
21569;SDS011;57598;50.888;4.746;2023-07-02T00:43:52;50.28;;;46.25;;
21569;SDS011;57598;50.888;4.746;2023-07-02T00:46:20;49.03;;;45.38;;
21569;SDS011;57598;50.888;4.746;2023-07-02T00:48:50;54.05;;;48.75;;
21569;SDS011;57598;50.888;4.746;2023-07-02T00:51:19;47.92;;;44.10;;
21569;SDS011;57598;50.888;4.746;2023-07-02T00:53:47;49.28;;;44.72;;
21569;SDS011;57598;50.888;4.746;2023-07-02T00:56:15;56.30;;;50.40;;
21569;SDS011;57598;50.888;4.746;2023-07-02T00:58:43;49.35;;;45.45;;
21569;SDS011;57598;50.888;4.746;2023-07-02T01:01:15;47.97;;;44.17;;
21569;SDS011;57598;50.888;4.746;2023-07-02T01:03:50;52.00;;;47.38;;
21569;SDS011;57598;50.888;4.746;2023-07-02T01:06:19;48.47;;;44.78;;
21569;SDS011;57598;50.888;4.746;2023-07-02T01:11:18;47.50;;;43.90;;
21569;SDS011;57598;50.888;4.746;2023-07-02T01:13:47;53.55;;;48.65;;
21569;SDS011;57598;50.888;4.746;2023-07-02T01:16:19;56.40;;;50.47;;
21569;SDS011;57598;50.888;4.746;2023-07-02T01:18:48;48.60;;;44.83;;
21569;SDS011;57598;50.888;4.746;2023-07-02T01:23:48;52.67;;;47.72;;
21569;SDS011;57598;50.888;4.746;2023-07-02T01:26:15;58.40;;;52.50;;
21569;SDS011;57598;50.888;4.746;2023-07-02T01:28:43;54.97;;;50.30;;
21569;SDS011;57598;50.888;4.746;2023-07-02T01:31:10;52.28;;;47.47;;
21569;SDS011;57598;50.888;4.746;2023-07-02T01:33:37;51.92;;;47.67;;
21569;SDS011;57598;50.888;4.746;2023-07-02T01:36:04;54.33;;;49.53;;
21569;SDS011;57598;50.888;4.746;2023-07-02T01:38:33;51.38;;;47.35;;
21569;SDS011;57598;50.888;4.746;2023-07-02T01:41:00;47.22;;;43.63;;
21569;SDS011;57598;50.888;4.746;2023-07-02T01:43:27;55.33;;;50.47;;
21569;SDS011;57598;50.888;4.746;2023-07-02T01:45:54;55.72;;;49.40;;
21569;SDS011;57598;50.888;4.746;2023-07-02T01:48:22;53.35;;;48.13;;
21569;SDS011;57598;50.888;4.746;2023-07-02T01:50:49;50.00;;;45.90;;
21569;SDS011;57598;50.888;4.746;2023-07-02T01:53:16;63.72;;;51.10;;
21569;SDS011;57598;50.888;4.746;2023-07-02T01:55:44;51.45;;;47.47;;
21569;SDS011;57598;50.888;4.746;2023-07-02T01:58:11;52.38;;;47.97;;
21569;SDS011;57598;50.888;4.746;2023-07-02T02:00:38;57.92;;;52.08;;
21569;SDS011;57598;50.888;4.746;2023-07-02T02:03:05;48.53;;;44.72;;
21569;SDS011;57598;50.888;4.746;2023-07-02T02:05:32;52.42;;;48.05;;
21569;SDS011;57598;50.888;4.746;2023-07-02T02:08:00;56.45;;;50.60;;
21569;SDS011;57598;50.888;4.746;2023-07-02T02:10:27;51.67;;;47.38;;
21569;SDS011;57598;50.888;4.746;2023-07-02T02:12:55;55.28;;;50.55;;
21569;SDS011;57598;50.888;4.746;2023-07-02T02:15:22;50.30;;;46.40;;
21569;SDS011;57598;50.888;4.746;2023-07-02T02:17:49;57.38;;;52.08;;
21569;SDS011;57598;50.888;4.746;2023-07-02T02:20:17;51.63;;;46.85;;
21569;SDS011;57598;50.888;4.746;2023-07-02T02:22:44;50.97;;;46.40;;
21569;SDS011;57598;50.888;4.746;2023-07-02T02:25:11;52.72;;;47.63;;
21569;SDS011;57598;50.888;4.746;2023-07-02T02:27:38;56.28;;;50.50;;
21569;SDS011;57598;50.888;4.746;2023-07-02T02:30:08;59.78;;;53.58;;
21569;SDS011;57598;50.888;4.746;2023-07-02T02:32:35;58.17;;;51.50;;
21569;SDS011;57598;50.888;4.746;2023-07-02T02:35:03;47.70;;;44.00;;
21569;SDS011;57598;50.888;4.746;2023-07-02T02:37:32;53.92;;;49.25;;
21569;SDS011;57598;50.888;4.746;2023-07-02T02:40:00;54.55;;;49.55;;
21569;SDS011;57598;50.888;4.746;2023-07-02T02:42:27;48.92;;;45.03;;
21569;SDS011;57598;50.888;4.746;2023-07-02T02:44:54;52.35;;;47.80;;
21569;SDS011;57598;50.888;4.746;2023-07-02T02:47:22;53.35;;;48.95;;
21569;SDS011;57598;50.888;4.746;2023-07-02T02:49:49;51.50;;;47.20;;
21569;SDS011;57598;50.888;4.746;2023-07-02T02:52:16;52.05;;;47.53;;
21569;SDS011;57598;50.888;4.746;2023-07-02T02:54:43;52.00;;;46.83;;
21569;SDS011;57598;50.888;4.746;2023-07-02T02:57:12;48.10;;;44.30;;
21569;SDS011;57598;50.888;4.746;2023-07-02T02:59:39;52.08;;;47.35;;
21569;SDS011;57598;50.888;4.746;2023-07-02T03:02:06;48.33;;;44.42;;
21569;SDS011;57598;50.888;4.746;2023-07-02T03:04:35;50.28;;;45.85;;
21569;SDS011;57598;50.888;4.746;2023-07-02T03:07:04;49.67;;;45.67;;
21569;SDS011;57598;50.888;4.746;2023-07-02T03:09:32;51.97;;;47.78;;
21569;SDS011;57598;50.888;4.746;2023-07-02T03:11:59;61.35;;;54.65;;
21569;SDS011;57598;50.888;4.746;2023-07-02T03:14:26;58.17;;;52.22;;
21569;SDS011;57598;50.888;4.746;2023-07-02T03:16:53;60.17;;;53.15;;
21569;SDS011;57598;50.888;4.746;2023-07-02T03:19:20;52.88;;;47.65;;
21569;SDS011;57598;50.888;4.746;2023-07-02T03:21:49;52.90;;;48.00;;
21569;SDS011;57598;50.888;4.746;2023-07-02T03:24:16;49.17;;;45.03;;
21569;SDS011;57598;50.888;4.746;2023-07-02T03:26:44;51.08;;;46.83;;
21569;SDS011;57598;50.888;4.746;2023-07-02T03:29:11;55.03;;;50.20;;
21569;SDS011;57598;50.888;4.746;2023-07-02T03:31:38;48.45;;;44.45;;
21569;SDS011;57598;50.888;4.746;2023-07-02T03:34:06;53.30;;;47.80;;
21569;SDS011;57598;50.888;4.746;2023-07-02T03:36:35;49.85;;;45.72;;
21569;SDS011;57598;50.888;4.746;2023-07-02T03:39:03;52.97;;;48.20;;
21569;SDS011;57598;50.888;4.746;2023-07-02T03:41:30;47.65;;;43.65;;
21569;SDS011;57598;50.888;4.746;2023-07-02T03:43:57;53.78;;;48.85;;
21569;SDS011;57598;50.888;4.746;2023-07-02T03:46:24;51.03;;;46.10;;
21569;SDS011;57598;50.888;4.746;2023-07-02T03:48:51;50.75;;;46.45;;
21569;SDS011;57598;50.888;4.746;2023-07-02T03:51:18;49.20;;;45.10;;
21569;SDS011;57598;50.888;4.746;2023-07-02T03:53:46;52.70;;;47.70;;
21569;SDS011;57598;50.888;4.746;2023-07-02T03:56:14;51.15;;;46.85;;
21569;SDS011;57598;50.888;4.746;2023-07-02T03:58:42;55.47;;;50.20;;
21569;SDS011;57598;50.888;4.746;2023-07-02T04:01:09;53.58;;;48.97;;
21569;SDS011;57598;50.888;4.746;2023-07-02T04:03:36;55.30;;;50.55;;
21569;SDS011;57598;50.888;4.746;2023-07-02T04:06:03;58.53;;;53.17;;
21569;SDS011;57598;50.888;4.746;2023-07-02T04:08:31;56.20;;;51.22;;
21569;SDS011;57598;50.888;4.746;2023-07-02T04:10:59;56.70;;;51.38;;
21569;SDS011;57598;50.888;4.746;2023-07-02T04:13:28;54.13;;;49.22;;
21569;SDS011;57598;50.888;4.746;2023-07-02T04:15:55;50.47;;;46.40;;
21569;SDS011;57598;50.888;4.746;2023-07-02T04:18:22;56.70;;;51.30;;
21569;SDS011;57598;50.888;4.746;2023-07-02T04:20:49;53.70;;;49.28;;
21569;SDS011;57598;50.888;4.746;2023-07-02T04:23:17;50.70;;;46.60;;
21569;SDS011;57598;50.888;4.746;2023-07-02T04:25:44;53.25;;;49.00;;
21569;SDS011;57598;50.888;4.746;2023-07-02T04:28:11;54.25;;;49.55;;
21569;SDS011;57598;50.888;4.746;2023-07-02T04:30:40;52.30;;;48.20;;
21569;SDS011;57598;50.888;4.746;2023-07-02T04:33:08;56.65;;;51.72;;
21569;SDS011;57598;50.888;4.746;2023-07-02T04:35:39;58.33;;;52.05;;
21569;SDS011;57598;50.888;4.746;2023-07-02T04:38:06;52.42;;;48.25;;
21569;SDS011;57598;50.888;4.746;2023-07-02T04:40:33;56.90;;;51.80;;
21569;SDS011;57598;50.888;4.746;2023-07-02T04:43:01;54.10;;;49.70;;
21569;SDS011;57598;50.888;4.746;2023-07-02T04:45:29;55.03;;;50.08;;
21569;SDS011;57598;50.888;4.746;2023-07-02T04:48:03;59.40;;;54.03;;
21569;SDS011;57598;50.888;4.746;2023-07-02T04:50:30;56.15;;;51.53;;
21569;SDS011;57598;50.888;4.746;2023-07-02T04:52:57;70.15;;;61.10;;
21569;SDS011;57598;50.888;4.746;2023-07-02T04:55:24;60.75;;;55.08;;
21569;SDS011;57598;50.888;4.746;2023-07-02T04:57:52;53.92;;;49.38;;
21569;SDS011;57598;50.888;4.746;2023-07-02T05:00:19;62.00;;;55.80;;
21569;SDS011;57598;50.888;4.746;2023-07-02T05:02:47;58.47;;;53.95;;
21569;SDS011;57598;50.888;4.746;2023-07-02T05:05:16;60.03;;;55.10;;
21569;SDS011;57598;50.888;4.746;2023-07-02T05:07:43;71.05;;;56.28;;
21569;SDS011;57598;50.888;4.746;2023-07-02T05:10:10;55.20;;;50.65;;
21569;SDS011;57598;50.888;4.746;2023-07-02T05:12:38;54.05;;;49.83;;
21569;SDS011;57598;50.888;4.746;2023-07-02T05:15:06;61.17;;;55.33;;
21569;SDS011;57598;50.888;4.746;2023-07-02T05:17:33;54.50;;;50.05;;
21569;SDS011;57598;50.888;4.746;2023-07-02T05:20:01;54.65;;;50.13;;
21569;SDS011;57598;50.888;4.746;2023-07-02T05:22:30;56.05;;;50.95;;
21569;SDS011;57598;50.888;4.746;2023-07-02T05:24:58;55.50;;;51.05;;
21569;SDS011;57598;50.888;4.746;2023-07-02T05:27:25;55.38;;;50.80;;
21569;SDS011;57598;50.888;4.746;2023-07-02T05:29:52;57.92;;;52.22;;
21569;SDS011;57598;50.888;4.746;2023-07-02T05:32:19;55.58;;;50.53;;
21569;SDS011;57598;50.888;4.746;2023-07-02T05:34:47;58.80;;;53.25;;
21569;SDS011;57598;50.888;4.746;2023-07-02T05:37:14;56.35;;;51.58;;
21569;SDS011;57598;50.888;4.746;2023-07-02T05:39:42;59.65;;;54.53;;
21569;SDS011;57598;50.888;4.746;2023-07-02T05:42:10;63.13;;;56.97;;
21569;SDS011;57598;50.888;4.746;2023-07-02T05:44:37;57.75;;;52.55;;
21569;SDS011;57598;50.888;4.746;2023-07-02T05:47:04;56.20;;;51.30;;
21569;SDS011;57598;50.888;4.746;2023-07-02T05:49:31;58.38;;;53.13;;
21569;SDS011;57598;50.888;4.746;2023-07-02T05:51:59;52.78;;;48.67;;
21569;SDS011;57598;50.888;4.746;2023-07-02T05:54:26;50.90;;;47.05;;
21569;SDS011;57598;50.888;4.746;2023-07-02T05:56:55;55.50;;;50.63;;
21569;SDS011;57598;50.888;4.746;2023-07-02T05:59:22;55.90;;;51.03;;
21569;SDS011;57598;50.888;4.746;2023-07-02T06:01:49;52.35;;;48.50;;
21569;SDS011;57598;50.888;4.746;2023-07-02T06:04:16;55.95;;;51.22;;
21569;SDS011;57598;50.888;4.746;2023-07-02T06:06:43;50.15;;;46.33;;
21569;SDS011;57598;50.888;4.746;2023-07-02T06:09:11;56.55;;;49.88;;
21569;SDS011;57598;50.888;4.746;2023-07-02T06:11:38;56.15;;;51.20;;
21569;SDS011;57598;50.888;4.746;2023-07-02T06:14:07;49.50;;;44.53;;
21569;SDS011;57598;50.888;4.746;2023-07-02T06:16:34;50.00;;;45.97;;
21569;SDS011;57598;50.888;4.746;2023-07-02T06:19:01;66.63;;;56.08;;
21569;SDS011;57598;50.888;4.746;2023-07-02T06:21:28;52.33;;;48.08;;
21569;SDS011;57598;50.888;4.746;2023-07-02T06:23:56;55.15;;;50.58;;
21569;SDS011;57598;50.888;4.746;2023-07-02T06:26:24;53.85;;;48.47;;
21569;SDS011;57598;50.888;4.746;2023-07-02T06:28:51;52.25;;;47.85;;
21569;SDS011;57598;50.888;4.746;2023-07-02T06:31:19;51.92;;;47.38;;
21569;SDS011;57598;50.888;4.746;2023-07-02T06:33:47;48.20;;;44.28;;
21569;SDS011;57598;50.888;4.746;2023-07-02T06:36:14;48.15;;;44.17;;
21569;SDS011;57598;50.888;4.746;2023-07-02T06:38:42;52.00;;;47.35;;
21569;SDS011;57598;50.888;4.746;2023-07-02T06:41:10;52.78;;;47.83;;
21569;SDS011;57598;50.888;4.746;2023-07-02T06:43:37;46.35;;;42.50;;
21569;SDS011;57598;50.888;4.746;2023-07-02T06:46:04;49.22;;;44.40;;
21569;SDS011;57598;50.888;4.746;2023-07-02T06:48:33;52.95;;;48.08;;
21569;SDS011;57598;50.888;4.746;2023-07-02T06:51:00;45.58;;;41.90;;
21569;SDS011;57598;50.888;4.746;2023-07-02T06:53:28;45.55;;;42.70;;
21569;SDS011;57598;50.888;4.746;2023-07-02T06:55:55;52.60;;;48.03;;
21569;SDS011;57598;50.888;4.746;2023-07-02T06:58:23;53.50;;;48.90;;
21569;SDS011;57598;50.888;4.746;2023-07-02T07:00:50;51.58;;;44.97;;
21569;SDS011;57598;50.888;4.746;2023-07-02T07:03:17;42.60;;;39.45;;
21569;SDS011;57598;50.888;4.746;2023-07-02T07:05:46;45.45;;;42.08;;
21569;SDS011;57598;50.888;4.746;2023-07-02T07:08:13;44.78;;;41.50;;
21569;SDS011;57598;50.888;4.746;2023-07-02T07:10:40;60.45;;;44.58;;
21569;SDS011;57598;50.888;4.746;2023-07-02T07:13:09;43.20;;;39.40;;
21569;SDS011;57598;50.888;4.746;2023-07-02T07:15:36;36.78;;;34.47;;
21569;SDS011;57598;50.888;4.746;2023-07-02T07:18:04;42.10;;;38.95;;
21569;SDS011;57598;50.888;4.746;2023-07-02T07:20:31;44.00;;;39.92;;
21569;SDS011;57598;50.888;4.746;2023-07-02T07:23:01;39.28;;;35.55;;
21569;SDS011;57598;50.888;4.746;2023-07-02T07:25:28;33.80;;;31.23;;
21569;SDS011;57598;50.888;4.746;2023-07-02T07:27:56;32.50;;;29.80;;
21569;SDS011;57598;50.888;4.746;2023-07-02T07:30:23;32.10;;;29.25;;
21569;SDS011;57598;50.888;4.746;2023-07-02T07:32:50;25.13;;;23.52;;
21569;SDS011;57598;50.888;4.746;2023-07-02T07:35:18;27.65;;;25.67;;
21569;SDS011;57598;50.888;4.746;2023-07-02T07:37:46;32.72;;;29.40;;
21569;SDS011;57598;50.888;4.746;2023-07-02T07:40:14;27.77;;;25.15;;
21569;SDS011;57598;50.888;4.746;2023-07-02T07:42:42;24.48;;;22.88;;
21569;SDS011;57598;50.888;4.746;2023-07-02T07:45:09;26.63;;;24.48;;
21569;SDS011;57598;50.888;4.746;2023-07-02T07:47:37;24.65;;;22.42;;
21569;SDS011;57598;50.888;4.746;2023-07-02T07:50:05;22.23;;;20.63;;
21569;SDS011;57598;50.888;4.746;2023-07-02T07:52:36;25.50;;;22.55;;
21569;SDS011;57598;50.888;4.746;2023-07-02T07:55:03;27.23;;;23.13;;
21569;SDS011;57598;50.888;4.746;2023-07-02T07:57:32;19.02;;;17.83;;
21569;SDS011;57598;50.888;4.746;2023-07-02T07:59:59;20.25;;;18.83;;
21569;SDS011;57598;50.888;4.746;2023-07-02T08:02:26;20.98;;;19.35;;
21569;SDS011;57598;50.888;4.746;2023-07-02T08:04:54;19.20;;;17.60;;
21569;SDS011;57598;50.888;4.746;2023-07-02T08:07:21;22.65;;;20.55;;
21569;SDS011;57598;50.888;4.746;2023-07-02T08:09:48;18.92;;;17.38;;
21569;SDS011;57598;50.888;4.746;2023-07-02T08:12:15;23.85;;;21.55;;
21569;SDS011;57598;50.888;4.746;2023-07-02T08:14:44;25.00;;;22.50;;
21569;SDS011;57598;50.888;4.746;2023-07-02T08:17:11;21.13;;;19.40;;
21569;SDS011;57598;50.888;4.746;2023-07-02T08:19:38;21.98;;;19.63;;
21569;SDS011;57598;50.888;4.746;2023-07-02T08:22:06;23.35;;;21.05;;
21569;SDS011;57598;50.888;4.746;2023-07-02T08:24:33;20.77;;;18.88;;
21569;SDS011;57598;50.888;4.746;2023-07-02T08:27:00;21.65;;;18.88;;
21569;SDS011;57598;50.888;4.746;2023-07-02T08:29:28;21.23;;;19.13;;
21569;SDS011;57598;50.888;4.746;2023-07-02T08:31:57;20.75;;;18.73;;
21569;SDS011;57598;50.888;4.746;2023-07-02T08:34:24;23.92;;;22.00;;
21569;SDS011;57598;50.888;4.746;2023-07-02T08:36:51;18.98;;;17.17;;
21569;SDS011;57598;50.888;4.746;2023-07-02T08:39:19;17.60;;;16.40;;
21569;SDS011;57598;50.888;4.746;2023-07-02T08:41:46;20.35;;;18.17;;
21569;SDS011;57598;50.888;4.746;2023-07-02T08:44:14;18.90;;;17.58;;
21569;SDS011;57598;50.888;4.746;2023-07-02T08:46:41;20.50;;;18.48;;
21569;SDS011;57598;50.888;4.746;2023-07-02T08:49:10;19.05;;;17.73;;
21569;SDS011;57598;50.888;4.746;2023-07-02T08:51:38;19.42;;;17.83;;
21569;SDS011;57598;50.888;4.746;2023-07-02T08:54:05;19.42;;;18.05;;
21569;SDS011;57598;50.888;4.746;2023-07-02T08:56:32;21.02;;;19.20;;
21569;SDS011;57598;50.888;4.746;2023-07-02T08:58:59;17.83;;;16.23;;
21569;SDS011;57598;50.888;4.746;2023-07-02T09:01:27;18.58;;;16.85;;
21569;SDS011;57598;50.888;4.746;2023-07-02T09:03:58;18.13;;;16.80;;
21569;SDS011;57598;50.888;4.746;2023-07-02T09:06:27;17.38;;;16.17;;
21569;SDS011;57598;50.888;4.746;2023-07-02T09:09:03;17.58;;;16.27;;
21569;SDS011;57598;50.888;4.746;2023-07-02T09:11:30;19.70;;;17.48;;
21569;SDS011;57598;50.888;4.746;2023-07-02T09:13:57;23.85;;;20.45;;
21569;SDS011;57598;50.888;4.746;2023-07-02T09:16:26;21.98;;;19.63;;
21569;SDS011;57598;50.888;4.746;2023-07-02T09:18:57;20.33;;;18.25;;
21569;SDS011;57598;50.888;4.746;2023-07-02T09:21:25;20.08;;;18.02;;
21569;SDS011;57598;50.888;4.746;2023-07-02T09:23:54;17.08;;;15.98;;
21569;SDS011;57598;50.888;4.746;2023-07-02T09:26:22;20.95;;;18.77;;
21569;SDS011;57598;50.888;4.746;2023-07-02T09:28:49;20.98;;;19.20;;
21569;SDS011;57598;50.888;4.746;2023-07-02T09:31:17;20.65;;;18.55;;
21569;SDS011;57598;50.888;4.746;2023-07-02T09:33:44;19.10;;;17.33;;
21569;SDS011;57598;50.888;4.746;2023-07-02T09:36:11;24.00;;;19.50;;
21569;SDS011;57598;50.888;4.746;2023-07-02T09:38:39;18.45;;;16.98;;
21569;SDS011;57598;50.888;4.746;2023-07-02T09:41:08;20.48;;;18.35;;
21569;SDS011;57598;50.888;4.746;2023-07-02T09:43:35;18.70;;;16.90;;
21569;SDS011;57598;50.888;4.746;2023-07-02T09:46:02;17.08;;;15.88;;
21569;SDS011;57598;50.888;4.746;2023-07-02T09:48:30;21.77;;;19.40;;
21569;SDS011;57598;50.888;4.746;2023-07-02T09:51:00;17.02;;;15.80;;
21569;SDS011;57598;50.888;4.746;2023-07-02T09:53:28;27.17;;;20.83;;
21569;SDS011;57598;50.888;4.746;2023-07-02T09:55:55;22.75;;;18.70;;
21569;SDS011;57598;50.888;4.746;2023-07-02T09:58:24;22.92;;;20.45;;
21569;SDS011;57598;50.888;4.746;2023-07-02T10:00:51;17.17;;;15.88;;
21569;SDS011;57598;50.888;4.746;2023-07-02T10:03:27;23.15;;;18.80;;
21569;SDS011;57598;50.888;4.746;2023-07-02T10:06:02;24.90;;;21.98;;
21569;SDS011;57598;50.888;4.746;2023-07-02T10:08:30;18.98;;;17.10;;
21569;SDS011;57598;50.888;4.746;2023-07-02T10:11:06;19.10;;;17.42;;
21569;SDS011;57598;50.888;4.746;2023-07-02T10:13:34;18.42;;;16.70;;
21569;SDS011;57598;50.888;4.746;2023-07-02T10:16:02;21.02;;;18.92;;
21569;SDS011;57598;50.888;4.746;2023-07-02T10:18:29;18.15;;;16.83;;
21569;SDS011;57598;50.888;4.746;2023-07-02T10:20:56;15.40;;;14.48;;
21569;SDS011;57598;50.888;4.746;2023-07-02T10:23:32;19.38;;;17.77;;
21569;SDS011;57598;50.888;4.746;2023-07-02T10:26:09;18.30;;;16.65;;
21569;SDS011;57598;50.888;4.746;2023-07-02T10:28:38;18.70;;;16.77;;
21569;SDS011;57598;50.888;4.746;2023-07-02T10:31:06;20.30;;;17.15;;
21569;SDS011;57598;50.888;4.746;2023-07-02T10:33:44;18.48;;;16.92;;
21569;SDS011;57598;50.888;4.746;2023-07-02T10:36:17;17.45;;;15.95;;
21569;SDS011;57598;50.888;4.746;2023-07-02T10:38:45;21.88;;;19.67;;
21569;SDS011;57598;50.888;4.746;2023-07-02T10:41:22;22.33;;;20.05;;
21569;SDS011;57598;50.888;4.746;2023-07-02T10:43:51;19.95;;;18.52;;
21569;SDS011;57598;50.888;4.746;2023-07-02T10:46:18;17.42;;;16.23;;
21569;SDS011;57598;50.888;4.746;2023-07-02T10:48:52;22.00;;;19.73;;
21569;SDS011;57598;50.888;4.746;2023-07-02T10:51:19;24.65;;;22.27;;
21569;SDS011;57598;50.888;4.746;2023-07-02T10:53:55;26.48;;;20.05;;
21569;SDS011;57598;50.888;4.746;2023-07-02T10:56:23;21.05;;;19.40;;
21569;SDS011;57598;50.888;4.746;2023-07-02T10:58:52;23.23;;;20.80;;
21569;SDS011;57598;50.888;4.746;2023-07-02T11:01:23;20.75;;;19.02;;
21569;SDS011;57598;50.888;4.746;2023-07-02T11:03:57;21.38;;;18.70;;
21569;SDS011;57598;50.888;4.746;2023-07-02T11:06:25;19.65;;;17.35;;
21569;SDS011;57598;50.888;4.746;2023-07-02T11:08:52;21.08;;;17.25;;
21569;SDS011;57598;50.888;4.746;2023-07-02T11:11:21;35.25;;;18.67;;
21569;SDS011;57598;50.888;4.746;2023-07-02T11:13:49;21.77;;;19.80;;
21569;SDS011;57598;50.888;4.746;2023-07-02T11:16:18;24.35;;;19.38;;
21569;SDS011;57598;50.888;4.746;2023-07-02T11:18:47;24.80;;;22.48;;
21569;SDS011;57598;50.888;4.746;2023-07-02T11:21:15;20.90;;;19.33;;
21569;SDS011;57598;50.888;4.746;2023-07-02T11:23:42;23.60;;;19.33;;
21569;SDS011;57598;50.888;4.746;2023-07-02T11:26:10;20.98;;;19.25;;
21569;SDS011;57598;50.888;4.746;2023-07-02T11:28:48;21.83;;;19.98;;
21569;SDS011;57598;50.888;4.746;2023-07-02T11:31:27;21.67;;;19.92;;
21569;SDS011;57598;50.888;4.746;2023-07-02T11:33:54;19.98;;;18.40;;
21569;SDS011;57598;50.888;4.746;2023-07-02T11:36:22;23.75;;;21.15;;
21569;SDS011;57598;50.888;4.746;2023-07-02T11:38:50;22.42;;;20.55;;
21569;SDS011;57598;50.888;4.746;2023-07-02T11:41:18;24.00;;;21.75;;
21569;SDS011;57598;50.888;4.746;2023-07-02T11:43:45;20.17;;;18.48;;
21569;SDS011;57598;50.888;4.746;2023-07-02T11:46:13;23.05;;;20.92;;
21569;SDS011;57598;50.888;4.746;2023-07-02T11:48:42;20.27;;;18.75;;
21569;SDS011;57598;50.888;4.746;2023-07-02T11:51:09;25.80;;;23.10;;
21569;SDS011;57598;50.888;4.746;2023-07-02T11:53:36;20.67;;;19.08;;
21569;SDS011;57598;50.888;4.746;2023-07-02T11:56:04;22.77;;;20.52;;
21569;SDS011;57598;50.888;4.746;2023-07-02T11:58:31;21.73;;;19.92;;
21569;SDS011;57598;50.888;4.746;2023-07-02T12:00:58;24.33;;;21.88;;
21569;SDS011;57598;50.888;4.746;2023-07-02T12:03:26;22.50;;;20.40;;
21569;SDS011;57598;50.888;4.746;2023-07-02T12:05:54;21.83;;;19.63;;
21569;SDS011;57598;50.888;4.746;2023-07-02T12:08:21;28.25;;;20.45;;
21569;SDS011;57598;50.888;4.746;2023-07-02T12:10:49;23.35;;;21.25;;
21569;SDS011;57598;50.888;4.746;2023-07-02T12:13:16;19.65;;;18.08;;
21569;SDS011;57598;50.888;4.746;2023-07-02T12:15:46;19.75;;;18.20;;
21569;SDS011;57598;50.888;4.746;2023-07-02T12:18:14;20.05;;;18.33;;
21569;SDS011;57598;50.888;4.746;2023-07-02T12:20:41;24.50;;;21.98;;
21569;SDS011;57598;50.888;4.746;2023-07-02T12:23:10;18.95;;;17.35;;
21569;SDS011;57598;50.888;4.746;2023-07-02T12:25:37;23.75;;;19.58;;
21569;SDS011;57598;50.888;4.746;2023-07-02T12:28:04;20.25;;;18.75;;
21569;SDS011;57598;50.888;4.746;2023-07-02T12:30:33;19.17;;;17.75;;
21569;SDS011;57598;50.888;4.746;2023-07-02T12:33:00;22.98;;;20.77;;
21569;SDS011;57598;50.888;4.746;2023-07-02T12:35:27;21.70;;;19.75;;
21569;SDS011;57598;50.888;4.746;2023-07-02T12:37:55;20.05;;;18.40;;
21569;SDS011;57598;50.888;4.746;2023-07-02T12:40:23;21.27;;;19.48;;
21569;SDS011;57598;50.888;4.746;2023-07-02T12:42:51;26.05;;;23.58;;
21569;SDS011;57598;50.888;4.746;2023-07-02T12:45:18;23.50;;;21.23;;
21569;SDS011;57598;50.888;4.746;2023-07-02T12:47:45;25.60;;;22.40;;
21569;SDS011;57598;50.888;4.746;2023-07-02T12:50:12;18.23;;;17.02;;
21569;SDS011;57598;50.888;4.746;2023-07-02T12:52:40;17.77;;;16.60;;
21569;SDS011;57598;50.888;4.746;2023-07-02T12:55:07;29.20;;;22.77;;
21569;SDS011;57598;50.888;4.746;2023-07-02T12:57:36;22.42;;;20.55;;
21569;SDS011;57598;50.888;4.746;2023-07-02T13:00:04;19.13;;;17.80;;
21569;SDS011;57598;50.888;4.746;2023-07-02T13:02:33;21.40;;;20.00;;
21569;SDS011;57598;50.888;4.746;2023-07-02T13:05:01;22.23;;;20.50;;
21569;SDS011;57598;50.888;4.746;2023-07-02T13:07:28;31.02;;;23.73;;
21569;SDS011;57598;50.888;4.746;2023-07-02T13:09:56;22.20;;;20.17;;
21569;SDS011;57598;50.888;4.746;2023-07-02T13:12:23;24.00;;;22.02;;
21569;SDS011;57598;50.888;4.746;2023-07-02T13:14:52;20.10;;;18.75;;
21569;SDS011;57598;50.888;4.746;2023-07-02T13:17:19;20.83;;;19.20;;
21569;SDS011;57598;50.888;4.746;2023-07-02T13:19:46;22.15;;;20.40;;
21569;SDS011;57598;50.888;4.746;2023-07-02T13:22:14;22.60;;;20.13;;
21569;SDS011;57598;50.888;4.746;2023-07-02T13:24:41;23.83;;;21.40;;
21569;SDS011;57598;50.888;4.746;2023-07-02T13:27:11;33.67;;;24.10;;
21569;SDS011;57598;50.888;4.746;2023-07-02T13:29:38;21.52;;;19.98;;
21569;SDS011;57598;50.888;4.746;2023-07-02T13:32:08;18.55;;;17.15;;
21569;SDS011;57598;50.888;4.746;2023-07-02T13:34:36;20.00;;;18.60;;
21569;SDS011;57598;50.888;4.746;2023-07-02T13:37:04;21.85;;;19.83;;
21569;SDS011;57598;50.888;4.746;2023-07-02T13:39:31;23.77;;;21.45;;
21569;SDS011;57598;50.888;4.746;2023-07-02T13:41:58;20.85;;;18.85;;
21569;SDS011;57598;50.888;4.746;2023-07-02T13:44:26;19.88;;;18.27;;
21569;SDS011;57598;50.888;4.746;2023-07-02T13:46:53;21.75;;;19.85;;
21569;SDS011;57598;50.888;4.746;2023-07-02T13:49:22;20.77;;;19.08;;
21569;SDS011;57598;50.888;4.746;2023-07-02T13:51:49;20.10;;;18.85;;
21569;SDS011;57598;50.888;4.746;2023-07-02T13:54:16;21.52;;;19.92;;
21569;SDS011;57598;50.888;4.746;2023-07-02T13:56:45;20.00;;;18.10;;
21569;SDS011;57598;50.888;4.746;2023-07-02T13:59:14;19.98;;;18.17;;
21569;SDS011;57598;50.888;4.746;2023-07-02T14:01:42;20.88;;;19.20;;
21569;SDS011;57598;50.888;4.746;2023-07-02T14:04:10;20.88;;;19.00;;
21569;SDS011;57598;50.888;4.746;2023-07-02T14:06:37;23.50;;;21.17;;
21569;SDS011;57598;50.888;4.746;2023-07-02T14:09:05;20.80;;;18.85;;
21569;SDS011;57598;50.888;4.746;2023-07-02T14:11:34;19.90;;;18.25;;
21569;SDS011;57598;50.888;4.746;2023-07-02T14:14:02;21.10;;;18.05;;
21569;SDS011;57598;50.888;4.746;2023-07-02T14:16:31;21.75;;;19.67;;
21569;SDS011;57598;50.888;4.746;2023-07-02T14:18:58;21.60;;;19.63;;
21569;SDS011;57598;50.888;4.746;2023-07-02T14:21:26;21.60;;;19.60;;
21569;SDS011;57598;50.888;4.746;2023-07-02T14:23:53;19.80;;;18.38;;
21569;SDS011;57598;50.888;4.746;2023-07-02T14:26:20;19.98;;;18.05;;
21569;SDS011;57598;50.888;4.746;2023-07-02T14:28:47;15.55;;;14.63;;
21569;SDS011;57598;50.888;4.746;2023-07-02T14:31:15;19.58;;;17.92;;